createdAt,value
2017-08-30T00:01:11.870Z,32.23
2017-08-30T00:03:39.363Z,25.83
2017-08-30T00:06:06.845Z,30.40
2017-08-30T00:08:34.301Z,23.43
2017-08-30T00:11:01.768Z,18.10
2017-08-30T00:13:29.257Z,23.27
2017-08-30T00:15:56.708Z,40.13
2017-08-30T00:18:24.173Z,26.63
2017-08-30T00:20:51.657Z,23.63
2017-08-30T00:23:19.110Z,27.13
2017-08-30T00:25:58.446Z,22.07
2017-08-30T00:28:25.929Z,21.33
2017-08-30T00:30:53.404Z,20.60
2017-08-30T00:33:20.871Z,22.50
2017-08-30T00:35:48.365Z,30.07
2017-08-30T00:38:15.825Z,25.23
2017-08-30T00:40:43.290Z,23.37
2017-08-30T00:43:10.769Z,21.43
2017-08-30T00:45:39.030Z,19.97
2017-08-30T00:48:06.495Z,24.37
2017-08-30T00:50:33.954Z,23.70
2017-08-30T00:53:01.437Z,18.30
2017-08-30T00:55:28.894Z,27.30
2017-08-30T00:57:56.355Z,19.80
2017-08-30T01:00:23.829Z,21.17
2017-08-30T01:02:51.283Z,20.40
2017-08-30T01:05:18.752Z,19.93
2017-08-30T01:07:46.241Z,20.87
2017-08-30T01:10:13.752Z,22.10
2017-08-30T01:12:41.994Z,30.40
2017-08-30T01:15:09.460Z,24.23
2017-08-30T01:17:36.942Z,20.83
2017-08-30T01:20:04.414Z,20.60
2017-08-30T01:22:31.902Z,20.23
2017-08-30T01:24:59.359Z,23.57
2017-08-30T01:27:26.814Z,20.10
2017-08-30T01:29:54.296Z,25.90
2017-08-30T01:32:21.771Z,26.27
2017-08-30T01:34:49.225Z,22.00
2017-08-30T01:37:16.702Z,25.17
2017-08-30T01:39:44.183Z,25.77
2017-08-30T01:42:11.656Z,26.83
2017-08-30T01:44:39.118Z,22.77
2017-08-30T01:47:06.607Z,30.60
2017-08-30T01:49:34.083Z,28.23
2017-08-30T01:52:01.532Z,26.73
2017-08-30T01:54:29.018Z,23.97
2017-08-30T01:56:57.242Z,26.20
2017-08-30T01:59:24.693Z,26.50
2017-08-30T02:01:52.175Z,23.73
2017-08-30T02:04:19.625Z,33.73
2017-08-30T02:06:47.101Z,25.07
2017-08-30T02:09:14.614Z,41.83
2017-08-30T02:11:42.073Z,46.97
2017-08-30T02:14:09.570Z,52.80
2017-08-30T02:16:37.021Z,72.33
2017-08-30T02:19:04.485Z,78.90
2017-08-30T02:21:31.965Z,82.47
2017-08-30T02:23:59.418Z,75.80
2017-08-30T02:26:26.902Z,94.80
2017-08-30T02:28:55.128Z,97.70
2017-08-30T02:31:22.610Z,98.57
2017-08-30T02:33:50.069Z,115.20
2017-08-30T02:36:17.548Z,130.83
2017-08-30T02:38:45.951Z,126.30
2017-08-30T02:41:13.411Z,114.53
2017-08-30T02:43:40.907Z,123.83
2017-08-30T02:46:08.380Z,128.80
2017-08-30T02:48:35.838Z,130.87
2017-08-30T02:51:03.318Z,147.00
2017-08-30T02:53:30.778Z,139.77
2017-08-30T02:55:58.260Z,134.10
2017-08-30T02:58:25.738Z,137.37
2017-08-30T03:00:53.202Z,139.93
2017-08-30T03:03:20.685Z,125.57
2017-08-30T03:05:48.142Z,130.37
2017-08-30T03:08:15.659Z,125.13
2017-08-30T03:10:43.118Z,130.63
2017-08-30T03:13:10.580Z,122.17
2017-08-30T03:15:38.058Z,120.87
2017-08-30T03:18:05.559Z,121.90
2017-08-30T03:20:33.010Z,134.87
2017-08-30T03:23:00.465Z,120.87
2017-08-30T03:25:28.326Z,121.07
2017-08-30T03:27:55.794Z,127.80
2017-08-30T03:30:23.286Z,121.07
2017-08-30T03:32:51.474Z,120.90
2017-08-30T03:35:19.001Z,120.47
2017-08-30T03:37:46.457Z,121.93
2017-08-30T03:40:13.921Z,122.37
2017-08-30T03:42:41.405Z,107.00
2017-08-30T03:45:08.882Z,127.57
2017-08-30T03:47:36.344Z,131.97
2017-08-30T03:50:03.834Z,133.90
2017-08-30T03:52:31.289Z,122.40
2017-08-30T03:54:58.740Z,126.43
2017-08-30T03:57:26.243Z,134.60
2017-08-30T03:59:53.779Z,132.00
2017-08-30T04:02:21.253Z,132.37
2017-08-30T04:04:48.781Z,138.37
2017-08-30T04:07:16.236Z,132.83
2017-08-30T04:09:43.698Z,132.57
2017-08-30T04:12:11.178Z,130.20
2017-08-30T04:14:39.439Z,141.00
2017-08-30T04:17:06.893Z,128.17
2017-08-30T04:19:34.385Z,124.67
2017-08-30T04:22:02.425Z,127.10
2017-08-30T04:24:29.909Z,128.07
2017-08-30T04:26:57.401Z,133.93
2017-08-30T04:29:24.904Z,118.87
2017-08-30T04:31:52.392Z,143.60
2017-08-30T04:34:19.846Z,125.90
2017-08-30T04:36:47.311Z,129.17
2017-08-30T04:39:14.798Z,126.13
2017-08-30T04:41:42.290Z,134.97
2017-08-30T04:44:09.749Z,137.90
2017-08-30T04:46:37.974Z,134.33
2017-08-30T04:49:05.463Z,147.23
2017-08-30T04:51:33.101Z,135.37
2017-08-30T04:54:00.691Z,135.73
2017-08-30T04:56:28.164Z,133.40
2017-08-30T04:58:55.968Z,121.10
2017-08-30T05:01:23.466Z,131.07
2017-08-30T05:03:50.997Z,124.67
2017-08-30T05:06:18.561Z,119.33
2017-08-30T05:08:46.180Z,127.40
2017-08-30T05:11:13.721Z,129.80
2017-08-30T05:13:41.209Z,129.20
2017-08-30T05:16:08.682Z,119.07
2017-08-30T05:18:36.201Z,124.20
2017-08-30T05:21:03.666Z,114.40
2017-08-30T05:23:31.125Z,114.30
2017-08-30T05:25:58.601Z,116.60
2017-08-30T05:28:26.153Z,116.30
2017-08-30T05:30:54.497Z,124.47
2017-08-30T05:33:22.053Z,132.60
2017-08-30T05:35:49.610Z,108.73
2017-08-30T05:38:17.093Z,104.07
2017-08-30T05:40:44.582Z,114.20
2017-08-30T05:43:12.062Z,120.23
2017-08-30T05:45:39.539Z,120.60
2017-08-30T05:48:06.993Z,121.77
2017-08-30T05:50:34.513Z,119.33
2017-08-30T05:53:02.008Z,111.27
2017-08-30T05:55:29.465Z,97.17
2017-08-30T05:57:56.959Z,93.43
2017-08-30T06:00:24.414Z,107.53
2017-08-30T06:02:53.201Z,100.30
2017-08-30T06:05:20.662Z,94.87
2017-08-30T06:07:48.146Z,90.60
2017-08-30T06:10:15.654Z,97.77
2017-08-30T06:12:43.113Z,90.13
2017-08-30T06:15:10.612Z,105.17
2017-08-30T06:17:38.070Z,87.83
2017-08-30T06:20:05.638Z,81.23
2017-08-30T06:22:33.885Z,82.60
2017-08-30T06:25:01.406Z,83.23
2017-08-30T06:27:30.677Z,77.67
2017-08-30T06:29:58.303Z,76.70
2017-08-30T06:32:25.782Z,73.90
2017-08-30T06:34:53.276Z,78.57
2017-08-30T06:37:20.754Z,73.50
2017-08-30T06:39:48.230Z,74.87
2017-08-30T06:42:15.710Z,74.30
2017-08-30T06:44:43.190Z,85.50
2017-08-30T06:47:10.674Z,68.27
2017-08-30T06:49:38.198Z,80.30
2017-08-30T06:52:05.679Z,72.27
2017-08-30T06:54:33.161Z,69.77
2017-08-30T06:57:00.641Z,76.63
2017-08-30T06:59:28.126Z,68.07
2017-08-30T07:01:55.581Z,76.43
2017-08-30T07:04:23.038Z,67.90
2017-08-30T07:06:50.540Z,81.17
2017-08-30T07:09:18.030Z,65.87
2017-08-30T07:11:45.487Z,73.87
2017-08-30T07:14:12.947Z,82.73
2017-08-30T07:16:40.418Z,75.20
2017-08-30T07:19:07.931Z,73.27
2017-08-30T07:21:35.390Z,72.47
2017-08-30T07:24:02.902Z,84.13
2017-08-30T07:26:30.621Z,76.50
2017-08-30T07:28:58.127Z,77.30
2017-08-30T07:31:25.577Z,82.17
2017-08-30T07:33:53.032Z,79.37
2017-08-30T07:36:20.517Z,86.80
2017-08-30T07:38:48.783Z,74.30
2017-08-30T07:41:16.242Z,87.03
2017-08-30T07:43:43.746Z,75.10
2017-08-30T07:46:11.229Z,91.43
2017-08-30T07:48:38.719Z,88.97
2017-08-30T07:51:06.193Z,90.17
2017-08-30T07:53:33.658Z,100.60
2017-08-30T07:56:01.133Z,94.60
2017-08-30T07:58:28.584Z,98.80
2017-08-30T08:00:56.061Z,110.33
2017-08-30T08:03:23.542Z,101.13
2017-08-30T08:05:51.054Z,96.83
2017-08-30T08:08:18.519Z,97.17
2017-08-30T08:10:45.980Z,100.03
2017-08-30T08:13:13.458Z,108.47
2017-08-30T08:15:40.946Z,114.93
2017-08-30T08:18:08.406Z,95.00
2017-08-30T08:20:35.862Z,100.73
2017-08-30T08:23:03.346Z,101.27
2017-08-30T08:25:30.817Z,92.67
2017-08-30T08:27:58.274Z,92.37
2017-08-30T08:30:25.759Z,111.23
2017-08-30T08:32:54.165Z,114.65
2017-08-30T08:35:21.653Z,116.77
2017-08-30T08:37:49.154Z,107.20
2017-08-30T08:40:17.694Z,121.13
2017-08-30T08:42:45.161Z,119.37
2017-08-30T08:45:12.641Z,103.03
2017-08-30T08:47:40.125Z,174.00
2017-08-30T08:50:07.614Z,180.97
2017-08-30T08:52:35.113Z,121.50
2017-08-30T08:55:02.610Z,144.60
2017-08-30T08:57:30.094Z,107.03
2017-08-30T08:59:57.554Z,126.23
2017-08-30T09:02:25.033Z,119.17
2017-08-30T09:04:52.495Z,110.60
2017-08-30T09:07:19.979Z,102.00
2017-08-30T09:09:47.465Z,98.43
2017-08-30T09:12:14.929Z,97.77
2017-08-30T09:14:42.394Z,83.33
2017-08-30T09:17:09.870Z,75.60
2017-08-30T09:19:37.329Z,66.27
2017-08-30T09:22:04.815Z,75.03
2017-08-30T09:24:32.485Z,62.50
2017-08-30T09:27:00.010Z,62.00
2017-08-30T09:29:27.465Z,59.63
2017-08-30T09:31:54.927Z,68.17
2017-08-30T09:34:22.410Z,68.83
2017-08-30T09:36:49.895Z,71.10
2017-08-30T09:39:17.378Z,67.87
2017-08-30T09:41:44.875Z,75.60
2017-08-30T09:44:12.332Z,80.20
2017-08-30T09:46:39.799Z,65.30
2017-08-30T09:49:07.302Z,81.30
2017-08-30T09:51:34.763Z,75.03
2017-08-30T09:54:02.218Z,58.67
2017-08-30T09:56:29.693Z,61.30
2017-08-30T09:58:57.154Z,62.50
2017-08-30T10:01:24.630Z,64.00
2017-08-30T10:03:52.853Z,51.93
2017-08-30T10:06:20.338Z,67.30
2017-08-30T10:08:47.805Z,61.10
2017-08-30T10:11:15.265Z,57.23
2017-08-30T10:13:42.742Z,56.63
2017-08-30T10:16:10.229Z,45.93
2017-08-30T10:18:37.689Z,59.30
2017-08-30T10:21:05.143Z,47.40
2017-08-30T10:23:32.618Z,50.90
2017-08-30T10:26:00.099Z,48.87
2017-08-30T10:28:27.553Z,45.90
2017-08-30T10:30:55.056Z,46.13
2017-08-30T10:33:22.517Z,41.97
2017-08-30T10:35:49.973Z,45.37
2017-08-30T10:38:17.449Z,50.07
2017-08-30T10:40:44.907Z,46.53
2017-08-30T10:43:12.379Z,48.67
2017-08-30T10:45:39.831Z,41.70
2017-08-30T10:48:08.157Z,48.83
2017-08-30T10:50:35.619Z,46.73
2017-08-30T10:53:03.083Z,61.67
2017-08-30T10:55:30.575Z,52.50
2017-08-30T10:57:58.049Z,57.90
2017-08-30T11:00:25.505Z,53.90
2017-08-30T11:02:53.002Z,56.07
2017-08-30T11:05:20.466Z,54.57
2017-08-30T11:07:47.990Z,52.87
2017-08-30T11:10:15.474Z,51.37
2017-08-30T11:12:42.937Z,55.27
2017-08-30T11:15:10.421Z,52.20
2017-08-30T11:17:37.880Z,52.90
2017-08-30T11:20:05.362Z,63.43
2017-08-30T11:22:32.861Z,56.07
2017-08-30T11:25:00.330Z,65.43
2017-08-30T11:27:27.790Z,54.60
2017-08-30T11:29:55.273Z,62.87
2017-08-30T11:32:22.743Z,75.80
2017-08-30T11:34:50.229Z,65.63
2017-08-30T11:37:17.685Z,76.53
2017-08-30T11:39:45.149Z,82.93
2017-08-30T11:42:12.627Z,69.93
2017-08-30T11:44:40.105Z,64.40
2017-08-30T11:47:07.558Z,64.13
2017-08-30T11:49:35.038Z,70.80
2017-08-30T11:52:02.515Z,73.47
2017-08-30T11:54:30.014Z,68.90
2017-08-30T11:56:57.467Z,73.90
2017-08-30T11:59:24.928Z,68.00
2017-08-30T12:01:52.399Z,61.77
2017-08-30T12:04:19.861Z,72.13
2017-08-30T12:06:47.342Z,63.17
2017-08-30T12:09:14.826Z,66.93
2017-08-30T12:11:42.312Z,66.10
2017-08-30T12:14:09.948Z,67.10
2017-08-30T12:16:37.400Z,70.73
2017-08-30T12:19:04.946Z,61.47
2017-08-30T12:21:32.445Z,64.13
2017-08-30T12:23:59.907Z,76.07
2017-08-30T12:26:27.362Z,58.50
2017-08-30T12:28:54.850Z,59.60
2017-08-30T12:31:22.297Z,66.23
2017-08-30T12:33:49.757Z,63.03
2017-08-30T12:36:17.237Z,64.77
2017-08-30T12:41:46.570Z,59.40
2017-08-30T12:44:14.027Z,63.50
2017-08-30T12:46:41.530Z,56.93
2017-08-30T12:49:08.990Z,62.37
2017-08-30T12:51:36.445Z,56.13
2017-08-30T12:54:03.945Z,54.57
2017-08-30T12:56:31.397Z,54.20
2017-08-30T12:58:58.893Z,55.13
2017-08-30T13:01:26.402Z,54.00
2017-08-30T13:03:53.870Z,53.73
2017-08-30T13:06:21.397Z,57.63
2017-08-30T13:08:48.865Z,60.23
2017-08-30T13:11:16.328Z,57.97
2017-08-30T13:13:43.805Z,56.63
2017-08-30T13:16:11.286Z,64.60
2017-08-30T13:18:38.779Z,59.50
2017-08-30T13:21:06.254Z,56.80
2017-08-30T13:23:33.733Z,59.87
2017-08-30T13:26:01.190Z,60.70
2017-08-30T13:28:28.716Z,59.43
2017-08-30T13:30:56.171Z,59.40
2017-08-30T13:33:23.638Z,58.70
2017-08-30T13:35:51.129Z,64.83
2017-08-30T13:38:18.591Z,53.77
2017-08-30T13:40:46.094Z,54.50
2017-08-30T13:43:13.594Z,59.20
2017-08-30T13:45:41.086Z,55.93
2017-08-30T13:48:08.540Z,64.43
2017-08-30T13:50:36.039Z,59.67
2017-08-30T13:53:03.546Z,66.77
2017-08-30T13:55:31.006Z,63.30
2017-08-30T13:57:58.458Z,80.33
2017-08-30T14:00:25.954Z,73.07
2017-08-30T14:02:53.397Z,66.70
2017-08-30T14:05:20.894Z,70.07
2017-08-30T14:07:48.386Z,72.30
2017-08-30T14:10:15.922Z,71.87
2017-08-30T14:12:43.503Z,80.40
2017-08-30T14:15:11.007Z,73.00
2017-08-30T14:17:38.506Z,70.63
2017-08-30T14:20:06.033Z,70.00
2017-08-30T14:22:33.540Z,83.83
2017-08-30T14:25:01.056Z,78.03
2017-08-30T14:27:28.566Z,75.37
2017-08-30T14:29:56.022Z,78.00
2017-08-30T14:32:23.534Z,78.10
2017-08-30T14:34:51.121Z,79.47
2017-08-30T14:37:18.698Z,81.17
2017-08-30T14:39:46.199Z,88.57
2017-08-30T14:42:13.722Z,85.40
2017-08-30T14:44:41.265Z,91.33
2017-08-30T14:47:08.771Z,95.10
2017-08-30T14:49:36.801Z,85.37
2017-08-30T14:52:05.263Z,85.20
2017-08-30T14:54:33.320Z,92.23
2017-08-30T14:57:02.056Z,89.57
2017-08-30T14:59:29.702Z,96.17
2017-08-30T15:01:57.408Z,87.80
2017-08-30T15:04:25.036Z,92.87
2017-08-30T15:06:52.654Z,90.20
2017-08-30T15:09:20.490Z,94.93
2017-08-30T15:11:48.917Z,95.37
2017-08-30T15:14:16.559Z,85.67
2017-08-30T15:16:44.473Z,89.70
2017-08-30T15:19:12.158Z,86.60
2017-08-30T15:21:39.808Z,90.97
2017-08-30T15:24:07.431Z,100.07
2017-08-30T15:26:34.972Z,92.60
2017-08-30T15:29:02.512Z,88.83
2017-08-30T15:31:30.030Z,86.63
2017-08-30T15:33:57.652Z,91.33
2017-08-30T15:36:25.121Z,95.37
2017-08-30T15:38:52.926Z,92.30
2017-08-30T15:41:21.471Z,113.80
2017-08-30T15:43:49.393Z,92.77
2017-08-30T15:46:17.261Z,92.13
2017-08-30T15:48:45.123Z,98.10
2017-08-30T15:51:12.678Z,96.27
2017-08-30T15:53:40.494Z,93.47
2017-08-30T15:56:08.317Z,93.37
2017-08-30T15:58:35.817Z,94.07
2017-08-30T16:01:03.405Z,100.23
2017-08-30T16:03:30.928Z,104.03
2017-08-30T16:05:58.479Z,93.03
2017-08-30T16:08:26.040Z,85.83
2017-08-30T16:10:53.529Z,93.53
2017-08-30T16:13:21.113Z,98.13
2017-08-30T16:15:48.594Z,93.93
2017-08-30T16:18:16.102Z,89.87
2017-08-30T16:20:43.642Z,93.30
2017-08-30T16:23:11.225Z,98.10
2017-08-30T16:25:38.701Z,87.60
2017-08-30T16:28:06.195Z,95.60
2017-08-30T16:30:33.802Z,89.73
2017-08-30T16:33:01.306Z,84.17
2017-08-30T16:35:29.567Z,90.90
2017-08-30T16:37:57.148Z,94.13
2017-08-30T16:40:24.689Z,106.50
2017-08-30T16:42:52.229Z,91.37
2017-08-30T16:45:19.751Z,95.63
2017-08-30T16:47:47.267Z,90.87
2017-08-30T16:50:14.777Z,93.60
2017-08-30T16:52:42.285Z,93.43
2017-08-30T16:55:09.824Z,86.67
2017-08-30T16:57:37.309Z,94.07
2017-08-30T17:00:04.837Z,99.30
2017-08-30T17:02:32.316Z,103.60
2017-08-30T17:04:59.846Z,93.93
2017-08-30T17:07:27.402Z,94.53
2017-08-30T17:09:54.905Z,101.50
2017-08-30T17:12:22.465Z,99.10
2017-08-30T17:14:49.961Z,97.67
2017-08-30T17:17:17.493Z,91.70
2017-08-30T17:19:45.031Z,88.23
2017-08-30T17:22:12.582Z,91.30
2017-08-30T17:24:40.087Z,110.43
2017-08-30T17:27:07.734Z,86.57
2017-08-30T17:29:35.536Z,91.93
2017-08-30T17:32:03.155Z,90.80
2017-08-30T17:34:30.994Z,97.47
2017-08-30T17:36:58.748Z,94.90
2017-08-30T17:39:26.446Z,104.17
2017-08-30T17:41:54.093Z,98.70
2017-08-30T17:44:21.800Z,115.13
2017-08-30T17:46:49.430Z,110.43
2017-08-30T17:49:17.239Z,115.57
2017-08-30T17:51:44.766Z,108.90
2017-08-30T17:54:12.266Z,45.50
2017-08-30T17:56:40.522Z,8.13
2017-08-30T17:59:08.019Z,37.60
2017-08-30T18:01:35.489Z,20.20
2017-08-30T18:04:02.956Z,8.90
2017-08-30T18:06:30.467Z,7.20
2017-08-30T18:08:57.936Z,5.10
2017-08-30T18:11:25.406Z,12.03
2017-08-30T18:13:52.909Z,8.30
2017-08-30T18:16:20.401Z,9.60
2017-08-30T18:18:47.874Z,9.23
2017-08-30T18:21:15.397Z,15.63
2017-08-30T18:23:42.845Z,9.80
2017-08-30T18:26:10.296Z,8.07
2017-08-30T18:28:37.798Z,13.80
2017-08-30T18:31:05.241Z,12.10
2017-08-30T18:33:34.441Z,9.20
2017-08-30T18:36:03.106Z,8.70
2017-08-30T18:38:30.573Z,9.83
2017-08-30T18:40:58.077Z,26.80
2017-08-30T18:43:25.542Z,21.70
2017-08-30T18:45:53.065Z,42.87
2017-08-30T18:48:21.031Z,19.13
2017-08-30T18:50:48.540Z,22.50
2017-08-30T18:53:16.101Z,20.27
2017-08-30T18:55:44.507Z,14.63
2017-08-30T18:58:12.004Z,13.33
2017-08-30T19:00:40.270Z,14.60
2017-08-30T19:03:08.545Z,13.50
2017-08-30T19:05:36.245Z,16.00
2017-08-30T19:08:04.111Z,13.63
2017-08-30T19:10:31.567Z,13.97
2017-08-30T19:12:59.176Z,9.57
2017-08-30T19:15:27.644Z,25.87
2017-08-30T19:17:56.167Z,20.83
2017-08-30T19:20:25.327Z,29.87
2017-08-30T19:22:53.119Z,23.87
2017-08-30T19:25:21.063Z,32.40
2017-08-30T19:27:48.904Z,42.50
2017-08-30T19:30:16.660Z,26.40
2017-08-30T19:32:44.399Z,18.27
2017-08-30T19:35:12.152Z,25.67
2017-08-30T19:37:39.943Z,24.10
2017-08-30T19:40:07.584Z,17.43
2017-08-30T19:42:35.267Z,15.80
2017-08-30T19:45:02.964Z,16.20
2017-08-30T19:47:30.701Z,18.93
2017-08-30T19:49:58.326Z,26.30
2017-08-30T19:52:25.933Z,14.20
2017-08-30T19:54:54.697Z,27.70
2017-08-30T19:57:22.775Z,23.97
2017-08-30T19:59:50.795Z,22.30
2017-08-30T20:02:18.374Z,23.67
2017-08-30T20:04:46.185Z,23.57
2017-08-30T20:07:14.172Z,41.07
2017-08-30T20:09:41.655Z,28.13
2017-08-30T20:12:09.375Z,38.57
2017-08-30T20:14:37.209Z,37.57
2017-08-30T20:17:04.764Z,57.57
2017-08-30T20:19:32.223Z,46.17
2017-08-30T20:21:59.729Z,53.20
2017-08-30T20:24:27.233Z,71.97
2017-08-30T20:26:54.739Z,73.13
2017-08-30T20:29:22.202Z,87.47
2017-08-30T20:31:49.670Z,65.33
2017-08-30T20:34:17.174Z,73.97
2017-08-30T20:36:44.662Z,65.43
2017-08-30T20:39:12.169Z,75.83
2017-08-30T20:41:39.668Z,55.57
2017-08-30T20:44:07.890Z,51.93
2017-08-30T20:46:35.673Z,64.37
2017-08-30T20:49:03.148Z,66.13
2017-08-30T20:51:30.677Z,44.03
2017-08-30T20:53:58.137Z,37.17
2017-08-30T20:56:25.602Z,40.17
2017-08-30T20:58:53.098Z,46.23
2017-08-30T21:01:20.548Z,50.70
2017-08-30T21:03:48.066Z,67.93
2017-08-30T21:06:15.523Z,53.77
2017-08-30T21:08:42.976Z,57.37
2017-08-30T21:11:10.784Z,36.53
2017-08-30T21:13:38.243Z,32.50
2017-08-30T21:16:05.751Z,28.47
2017-08-30T21:18:33.201Z,29.73
2017-08-30T21:21:00.658Z,31.30
2017-08-30T21:23:28.157Z,32.53
2017-08-30T21:25:55.613Z,36.10
2017-08-30T21:28:23.121Z,29.27
2017-08-30T21:30:51.345Z,18.27
2017-08-30T21:33:18.865Z,18.07
2017-08-30T21:35:46.317Z,14.40
2017-08-30T21:38:13.774Z,16.50
2017-08-30T21:40:41.265Z,15.40
2017-08-30T21:43:08.766Z,15.57
2017-08-30T21:45:36.282Z,11.37
2017-08-30T21:48:03.738Z,13.90
2017-08-30T21:50:31.213Z,15.37
2017-08-30T21:52:58.714Z,18.87
2017-08-30T21:55:26.166Z,10.90
2017-08-30T21:57:53.670Z,15.33
2017-08-30T22:00:21.121Z,10.90
2017-08-30T22:02:48.631Z,14.90
2017-08-30T22:05:16.086Z,14.87
2017-08-30T22:07:43.534Z,10.17
2017-08-30T22:10:11.061Z,13.80
2017-08-30T22:12:38.530Z,5.60
2017-08-30T22:15:06.118Z,9.10
2017-08-30T22:17:33.561Z,7.53
2017-08-30T22:20:01.017Z,8.93
2017-08-30T22:22:28.486Z,8.20
2017-08-30T22:24:55.962Z,10.93
2017-08-30T22:27:23.410Z,11.57
2017-08-30T22:29:50.889Z,17.77
2017-08-30T22:32:18.342Z,17.77
2017-08-30T22:34:45.798Z,14.23
2017-08-30T22:37:13.269Z,31.23
2017-08-30T22:39:40.731Z,11.23
2017-08-30T22:42:08.191Z,14.47
2017-08-30T22:44:36.445Z,14.07
2017-08-30T22:47:03.898Z,12.40
2017-08-30T22:49:31.345Z,15.10
2017-08-30T22:51:58.817Z,15.27
2017-08-30T22:54:26.273Z,23.60
2017-08-30T22:56:53.782Z,12.37
2017-08-30T22:59:21.249Z,16.70
2017-08-30T23:01:48.706Z,18.17
2017-08-30T23:04:16.182Z,17.83
2017-08-30T23:06:43.633Z,12.30
2017-08-30T23:09:11.135Z,11.17
2017-08-30T23:11:38.600Z,12.20
2017-08-30T23:14:06.072Z,13.73
2017-08-30T23:16:33.550Z,19.50
2017-08-30T23:19:01.009Z,10.17
2017-08-30T23:21:28.486Z,9.37
2017-08-30T23:23:55.947Z,11.47
2017-08-30T23:26:23.394Z,6.23
2017-08-30T23:28:50.927Z,9.20
2017-08-30T23:31:18.381Z,7.03
2017-08-30T23:33:45.832Z,7.70
2017-08-30T23:36:13.313Z,8.57
2017-08-30T23:38:40.774Z,10.73
2017-08-30T23:41:08.236Z,8.80
2017-08-30T23:43:35.701Z,9.97
2017-08-30T23:46:03.150Z,9.13
2017-08-30T23:48:30.637Z,10.50
2017-08-30T23:50:58.089Z,6.70
2017-08-30T23:53:25.567Z,9.70
2017-08-30T23:55:53.022Z,12.30
2017-08-30T23:58:20.482Z,14.57
